createdAt,value
2019-05-09T00:03:54.309Z,30.40
2019-05-09T00:09:03.803Z,30.40
2019-05-09T00:14:23.836Z,30.30
2019-05-09T00:20:29.006Z,30.40
2019-05-09T00:25:36.996Z,30.50
2019-05-09T00:30:54.102Z,30.50
2019-05-09T00:36:06.724Z,30.50
2019-05-09T00:47:53.417Z,30.60
2019-05-09T00:53:28.669Z,30.70
2019-05-09T00:58:39.167Z,30.80
2019-05-09T01:03:59.285Z,30.80
2019-05-09T01:09:24.173Z,30.90
2019-05-09T01:20:21.575Z,31.00
2019-05-09T01:25:52.925Z,31.10
2019-05-09T01:30:59.565Z,31.20
2019-05-09T01:36:14.332Z,31.00
2019-05-09T01:41:27.949Z,30.80
2019-05-09T01:52:03.475Z,31.00
2019-05-09T01:57:29.601Z,31.30
2019-05-09T02:05:49.501Z,31.20
2019-05-09T02:10:03.326Z,31.50
2019-05-09T02:15:14.449Z,31.60
2019-05-09T02:20:24.043Z,31.70
2019-05-09T02:25:30.881Z,31.70
2019-05-09T02:30:38.645Z,31.80
2019-05-09T02:35:56.767Z,31.90
2019-05-09T02:41:00.839Z,31.90
2019-05-09T02:46:18.590Z,32.00
2019-05-09T02:51:29.612Z,32.00
2019-05-09T02:56:40.846Z,32.00
2019-05-09T03:01:58.434Z,32.10
2019-05-09T03:07:09.431Z,32.10
2019-05-09T03:12:30.370Z,32.10
2019-05-09T03:17:32.031Z,32.00
2019-05-09T03:22:39.973Z,31.90
2019-05-09T03:27:48.934Z,31.90
2019-05-09T03:32:59.786Z,31.90
2019-05-09T03:38:10.334Z,31.90
2019-05-09T03:43:18.508Z,32.00
2019-05-09T03:48:28.354Z,32.30
2019-05-09T03:53:37.942Z,32.30
2019-05-09T03:58:47.480Z,32.40
